createdAt,value
2022-09-05T00:00:42.014Z,9.757426
2022-09-05T00:01:42.010Z,9.757548
2022-09-05T00:02:49.088Z,9.757551
2022-09-05T00:03:43.115Z,9.757444
2022-09-05T00:04:41.974Z,9.757399
2022-09-05T00:05:52.678Z,9.757527
2022-09-05T00:06:42.962Z,9.757500
2022-09-05T00:07:59.252Z,9.757501
2022-09-05T00:08:42.939Z,9.757395
2022-09-05T00:09:41.940Z,9.757452
2022-09-05T00:10:44.818Z,9.757562
2022-09-05T00:11:44.152Z,9.757517
2022-09-05T00:12:43.003Z,9.757528
2022-09-05T00:13:41.910Z,9.757464
2022-09-05T00:15:14.502Z,9.757541
2022-09-05T00:15:42.935Z,9.757513
2022-09-05T00:16:41.892Z,9.757476
2022-09-05T00:18:04.924Z,9.757485
2022-09-05T00:22:48.368Z,9.757520
2022-09-05T00:24:17.194Z,9.757517
2022-09-05T00:24:21.408Z,9.757529
2022-09-05T00:24:28.080Z,9.757561
2022-09-05T00:24:35.364Z,9.757559
2022-09-05T00:24:35.421Z,9.757483
2022-09-05T00:25:06.838Z,9.757568
2022-09-05T00:25:43.805Z,9.757448
2022-09-05T00:26:50.149Z,9.757477
2022-09-05T00:27:42.806Z,9.757488
2022-09-05T00:28:42.782Z,9.757483
2022-09-05T00:30:34.997Z,9.757459
2022-09-05T00:31:07.859Z,9.757512
2022-09-05T00:31:56.632Z,9.757571
2022-09-05T00:32:42.865Z,9.757572
2022-09-05T00:33:41.750Z,9.757607
2022-09-05T00:34:48.117Z,9.757531
2022-09-05T00:35:42.717Z,9.757558
2022-09-05T00:36:41.706Z,9.757568
2022-09-05T00:37:41.731Z,9.757541
2022-09-05T00:38:41.689Z,9.757530
2022-09-05T00:39:41.723Z,9.757446
2022-09-05T00:40:42.665Z,9.757488
2022-09-05T00:41:41.667Z,9.757496
2022-09-05T00:42:41.702Z,9.757464
2022-09-05T00:43:41.649Z,9.757458
2022-09-05T00:44:41.639Z,9.757433
2022-09-05T00:45:41.756Z,9.757482
2022-09-05T00:46:41.656Z,9.757446
2022-09-05T00:47:41.617Z,9.757371
2022-09-05T00:48:42.634Z,9.757504
2022-09-05T00:49:41.594Z,9.757459
2022-09-05T00:50:41.594Z,9.757389
2022-09-05T00:51:41.581Z,9.757339
2022-09-05T00:52:41.624Z,9.757385
2022-09-05T00:53:41.567Z,9.757402
2022-09-05T00:54:41.859Z,9.757336
2022-09-05T00:55:42.604Z,9.757423
2022-09-05T00:56:41.541Z,9.757535
2022-09-05T00:57:41.530Z,9.757500
2022-09-05T00:58:41.552Z,9.757568
2022-09-05T00:59:41.511Z,9.757425
2022-09-05T01:00:42.516Z,9.757464
2022-09-05T01:01:41.609Z,9.757498
2022-09-05T01:02:51.306Z,9.757462
2022-09-05T01:03:42.511Z,9.757463
2022-09-05T01:04:41.466Z,9.757502
2022-09-05T01:05:41.458Z,9.757504
2022-09-05T01:06:41.470Z,9.757539
2022-09-05T01:07:44.183Z,9.757529
2022-09-05T01:08:43.463Z,9.757512
2022-09-05T01:09:41.440Z,9.757501
2022-09-05T01:10:41.418Z,9.757417
2022-09-05T01:11:41.405Z,9.757429
2022-09-05T01:12:41.403Z,9.757413
2022-09-05T01:13:42.427Z,9.757441
2022-09-05T01:14:41.377Z,9.757430
2022-09-05T01:15:41.413Z,9.757431
2022-09-05T01:16:41.371Z,9.757442
2022-09-05T01:17:41.365Z,9.757462
2022-09-05T01:18:41.385Z,9.757453
2022-09-05T01:19:41.356Z,9.757455
2022-09-05T01:20:41.337Z,9.757462
2022-09-05T01:21:41.327Z,9.757425
2022-09-05T01:22:42.329Z,9.757414
2022-09-05T01:23:41.328Z,9.757485
2022-09-05T01:24:41.344Z,9.757546
2022-09-05T01:25:41.284Z,9.757471
2022-09-05T01:26:42.275Z,9.757463
2022-09-05T01:28:32.952Z,9.757447
2022-09-05T01:29:15.202Z,9.757484
2022-09-05T01:29:42.256Z,9.757567
2022-09-05T01:30:41.452Z,9.757479
2022-09-05T01:31:41.224Z,9.757523
2022-09-05T01:32:42.266Z,9.757698
2022-09-05T01:33:41.260Z,9.757664
2022-09-05T01:34:41.225Z,9.757413
2022-09-05T01:35:41.208Z,9.757484
2022-09-05T01:36:42.199Z,9.757708
2022-09-05T01:37:41.202Z,9.757790
2022-09-05T01:38:43.010Z,9.757690
2022-09-05T01:40:14.455Z,9.757579
2022-09-05T01:40:43.951Z,9.757521
2022-09-05T01:41:42.157Z,9.757759
2022-09-05T01:42:41.142Z,9.757811
2022-09-05T01:43:41.167Z,9.757952
2022-09-05T01:44:41.123Z,9.757858
2022-09-05T01:45:41.129Z,9.757672
2022-09-05T01:46:41.213Z,9.757631
2022-09-05T01:47:41.115Z,9.757638
2022-09-05T01:48:47.436Z,9.757663
2022-09-05T01:49:42.104Z,9.757622
2022-09-05T01:50:41.082Z,9.757650
2022-09-05T01:51:41.070Z,9.757608
2022-09-05T01:52:49.404Z,9.757781
2022-09-05T01:53:42.153Z,9.757836
2022-09-05T01:54:42.131Z,9.757646
2022-09-05T01:56:05.619Z,9.757900
2022-09-05T01:56:42.036Z,9.757591
2022-09-05T01:57:41.024Z,9.757598
2022-09-05T01:58:41.044Z,9.757668
2022-09-05T01:59:41.040Z,9.757807
2022-09-05T02:00:41.995Z,9.757831
2022-09-05T02:01:41.066Z,9.757756
2022-09-05T02:02:41.074Z,9.757650
2022-09-05T02:03:42.001Z,9.757568
2022-09-05T02:04:40.974Z,9.757646
2022-09-05T02:05:48.249Z,9.757512
2022-09-05T02:06:44.040Z,9.757651
2022-09-05T02:07:40.957Z,9.757663
2022-09-05T02:08:41.709Z,9.757758
2022-09-05T02:09:40.911Z,9.757671
2022-09-05T02:10:40.912Z,9.757647
2022-09-05T02:11:40.897Z,9.757984
2022-09-05T02:12:40.890Z,9.757861
2022-09-05T02:13:40.929Z,9.757741
2022-09-05T02:14:40.871Z,9.757722
2022-09-05T02:15:40.911Z,9.757702
2022-09-05T02:16:40.863Z,9.757757
2022-09-05T02:17:49.944Z,9.757718
2022-09-05T02:18:41.905Z,9.757772
2022-09-05T02:19:40.845Z,9.757803
2022-09-05T02:20:40.831Z,9.757710
2022-09-05T02:21:57.269Z,9.757529
2022-09-05T02:22:41.851Z,9.757698
2022-09-05T02:23:42.478Z,9.757745
2022-09-05T02:24:40.793Z,9.757647
2022-09-05T02:26:02.400Z,9.757677
2022-09-05T02:26:41.781Z,9.757554
2022-09-05T02:28:04.470Z,9.757186
2022-09-05T02:28:41.796Z,9.757193
2022-09-05T02:29:40.779Z,9.757312
2022-09-05T02:30:48.456Z,9.757504
2022-09-05T02:31:41.764Z,9.757328
2022-09-05T02:32:43.245Z,9.757687
2022-09-05T02:33:40.739Z,9.757522
2022-09-05T02:34:40.851Z,9.757179
2022-09-05T02:35:40.712Z,9.757513
2022-09-05T02:36:40.694Z,9.757524
2022-09-05T02:38:51.107Z,9.757424
2022-09-05T02:42:23.956Z,9.757555
2022-09-05T02:45:09.419Z,9.757776
2022-09-05T02:45:12.930Z,9.757384
2022-09-05T02:45:13.853Z,9.757511
2022-09-05T02:45:14.353Z,9.757464
2022-09-05T02:45:14.649Z,9.757378
2022-09-05T02:45:16.670Z,9.757583
2022-09-05T02:45:41.661Z,9.757484
2022-09-05T02:46:40.780Z,9.757441
2022-09-05T02:47:40.610Z,9.757436
2022-09-05T02:48:40.597Z,9.757467
2022-09-05T02:51:45.052Z,9.757379
2022-09-05T02:55:41.559Z,9.757453
2022-09-05T02:57:24.058Z,9.757322
2022-09-05T02:57:28.116Z,9.757450
2022-09-05T02:57:29.837Z,9.757404
2022-09-05T02:57:33.719Z,9.757454
2022-09-05T02:57:35.414Z,9.757351
2022-09-05T02:57:41.357Z,9.757410
2022-09-05T02:58:06.431Z,9.757459
2022-09-05T02:59:06.042Z,9.757479
2022-09-05T02:59:42.525Z,9.757435
2022-09-05T03:00:40.492Z,9.757436
2022-09-05T03:01:40.542Z,9.757497
2022-09-05T03:02:40.505Z,9.757475
2022-09-05T03:03:40.473Z,9.757421
2022-09-05T03:04:40.485Z,9.757659
2022-09-05T03:05:40.444Z,9.757566
2022-09-05T03:06:40.438Z,9.757483
2022-09-05T03:07:40.427Z,9.757488
2022-09-05T03:08:40.451Z,9.757508
2022-09-05T03:09:40.414Z,9.757532
2022-09-05T03:10:53.797Z,9.757478
2022-09-05T03:11:41.396Z,9.757494
2022-09-05T03:12:40.378Z,9.757531
2022-09-05T03:13:48.860Z,9.757496
2022-09-05T03:14:41.368Z,9.757426
2022-09-05T03:15:40.382Z,9.757419
2022-09-05T03:16:47.030Z,9.757476
2022-09-05T03:17:41.343Z,9.757472
2022-09-05T03:18:40.358Z,9.757489
2022-09-05T03:19:46.176Z,9.757502
2022-09-05T03:20:41.322Z,9.757560
2022-09-05T03:21:40.314Z,9.757569
2022-09-05T03:22:40.304Z,9.757380
2022-09-05T03:23:40.325Z,9.757404
2022-09-05T03:24:40.536Z,9.757338
2022-09-05T03:25:40.274Z,9.757443
2022-09-05T03:26:40.269Z,9.757453
2022-09-05T03:27:40.257Z,9.757409
2022-09-05T03:28:40.282Z,9.757478
2022-09-05T03:29:40.246Z,9.757464
2022-09-05T03:30:40.323Z,9.757448
2022-09-05T03:31:40.229Z,9.757520
2022-09-05T03:32:42.125Z,9.757506
2022-09-05T03:33:40.238Z,9.757457
2022-09-05T03:34:40.195Z,9.757590
2022-09-05T03:35:40.191Z,9.757517
2022-09-05T03:36:40.177Z,9.757462
2022-09-05T03:37:40.168Z,9.757421
2022-09-05T03:38:40.293Z,9.757425
2022-09-05T03:39:40.230Z,9.757384
2022-09-05T03:40:40.150Z,9.757401
2022-09-05T03:41:40.904Z,9.757483
2022-09-05T03:42:40.126Z,9.757390
2022-09-05T03:43:40.194Z,9.757394
2022-09-05T03:44:40.113Z,9.757507
2022-09-05T03:45:40.104Z,9.757397
2022-09-05T03:46:40.096Z,9.757481
2022-09-05T03:47:40.085Z,9.757624
2022-09-05T03:48:40.133Z,9.757621
2022-09-05T03:51:18.420Z,9.757524
2022-09-05T03:57:06.641Z,9.757620
2022-09-05T03:57:10.321Z,9.757207
2022-09-05T03:57:15.964Z,9.757389
2022-09-05T03:57:17.818Z,9.757498
2022-09-05T03:57:18.178Z,9.757418
2022-09-05T03:57:19.945Z,9.757395
2022-09-05T03:57:24.262Z,9.757356
2022-09-05T03:57:42.714Z,9.757490
2022-09-05T03:58:57.430Z,9.757500
2022-09-05T03:59:42.024Z,9.757236
2022-09-05T04:00:39.982Z,9.757303
2022-09-05T04:02:47.832Z,9.757544
2022-09-05T04:06:32.987Z,9.757501
2022-09-05T04:08:10.750Z,9.757569
2022-09-05T04:08:15.214Z,9.757490
2022-09-05T04:08:16.943Z,9.757357
2022-09-05T04:08:18.933Z,9.757439
2022-09-05T04:08:20.923Z,9.757614
2022-09-05T04:08:43.076Z,9.757592
2022-09-05T04:09:51.033Z,9.757505
2022-09-05T04:10:41.936Z,9.757639
2022-09-05T04:11:39.882Z,9.757463
2022-09-05T04:12:39.882Z,9.757425
2022-09-05T04:13:39.904Z,9.757512
2022-09-05T04:14:39.854Z,9.757564
2022-09-05T04:15:39.849Z,9.757475
2022-09-05T04:16:39.903Z,9.757673
2022-09-05T04:17:39.832Z,9.757345
2022-09-05T04:18:39.853Z,9.757544
2022-09-05T04:19:39.816Z,9.757390
2022-09-05T04:20:40.650Z,9.757380
2022-09-05T04:21:40.797Z,9.757532
2022-09-05T04:22:39.788Z,9.757450
2022-09-05T04:23:39.810Z,9.757458
2022-09-05T04:24:39.769Z,9.757554
2022-09-05T04:25:39.764Z,9.757603
2022-09-05T04:26:39.760Z,9.757417
2022-09-05T04:27:39.744Z,9.757404
2022-09-05T04:28:39.958Z,9.757474
2022-09-05T04:29:39.735Z,9.757485
2022-09-05T04:30:40.599Z,9.757317
2022-09-05T04:31:40.739Z,9.757522
2022-09-05T04:32:39.706Z,9.757565
2022-09-05T04:33:39.725Z,9.757380
2022-09-05T04:34:39.684Z,9.757395
2022-09-05T04:35:39.670Z,9.757498
2022-09-05T04:36:39.684Z,9.757955
2022-09-05T04:37:48.546Z,9.757530
2022-09-05T04:38:40.683Z,9.757879
2022-09-05T04:39:39.677Z,9.757607
2022-09-05T04:40:39.635Z,9.757377
2022-09-05T04:41:40.170Z,9.757357
2022-09-05T04:42:39.614Z,9.757401
2022-09-05T04:43:39.603Z,9.757408
2022-09-05T04:44:39.624Z,9.757529
2022-09-05T04:45:39.626Z,9.757612
2022-09-05T04:46:48.544Z,9.757638
2022-09-05T04:47:40.565Z,9.757655
2022-09-05T04:48:39.558Z,9.757502
2022-09-05T04:49:39.581Z,9.757672
2022-09-05T04:50:39.544Z,9.757495
2022-09-05T04:51:39.534Z,9.757400
2022-09-05T04:52:39.530Z,9.757437
2022-09-05T04:53:39.531Z,9.757463
2022-09-05T04:54:39.540Z,9.757309
2022-09-05T04:55:39.505Z,9.757535
2022-09-05T04:56:39.493Z,9.757236
2022-09-05T04:57:39.490Z,9.757354
2022-09-05T04:59:09.019Z,9.757407
2022-09-05T05:05:22.308Z,9.757451
2022-09-05T05:06:05.975Z,9.757484
2022-09-05T05:06:12.052Z,9.757477
2022-09-05T05:06:13.108Z,9.757472
2022-09-05T05:06:16.121Z,9.757456
2022-09-05T05:06:16.896Z,9.757388
2022-09-05T05:06:18.134Z,9.757470
2022-09-05T05:06:46.069Z,9.757401
2022-09-05T05:07:41.527Z,9.757457
2022-09-05T05:08:39.749Z,9.757458
2022-09-05T05:09:40.388Z,9.757448
2022-09-05T05:15:13.905Z,9.757496
2022-09-05T05:17:57.451Z,9.757459
2022-09-05T05:17:59.641Z,9.757543
2022-09-05T05:18:00.832Z,9.757475
2022-09-05T05:18:02.848Z,9.757441
2022-09-05T05:18:06.548Z,9.757593
2022-09-05T05:18:11.158Z,9.757390
2022-09-05T05:18:13.561Z,9.757582
2022-09-05T05:18:56.079Z,9.757389
2022-09-05T05:19:41.359Z,9.757444
2022-09-05T05:20:43.466Z,9.757530
2022-09-05T05:21:39.277Z,9.757586
2022-09-05T05:22:39.285Z,9.757538
2022-09-05T05:23:39.297Z,9.757580
2022-09-05T05:24:39.246Z,9.757691
2022-09-05T05:25:40.283Z,9.757524
2022-09-05T05:26:39.235Z,9.757526
2022-09-05T05:27:39.232Z,9.757281
2022-09-05T05:28:39.253Z,9.757443
2022-09-05T05:29:39.213Z,9.757689
2022-09-05T05:30:39.203Z,9.757576
2022-09-05T05:31:39.250Z,9.757385
2022-09-05T05:32:45.804Z,9.757415
2022-09-05T05:33:40.210Z,9.757391
2022-09-05T05:34:39.165Z,9.757343
2022-09-05T05:35:47.979Z,9.757400
2022-09-05T05:36:40.149Z,9.757326
2022-09-05T05:37:39.140Z,9.757372
2022-09-05T05:38:39.167Z,9.757396
2022-09-05T05:39:39.193Z,9.757425
2022-09-05T05:40:43.634Z,9.757422
2022-09-05T05:41:40.103Z,9.757507
2022-09-05T05:42:39.098Z,9.757396
2022-09-05T05:43:42.839Z,9.757401
2022-09-05T05:44:40.083Z,9.757512
2022-09-05T05:45:39.124Z,9.757461
2022-09-05T05:46:39.062Z,9.757394
2022-09-05T05:47:39.063Z,9.757385
2022-09-05T05:48:39.089Z,9.757312
2022-09-05T05:49:39.043Z,9.757469
2022-09-05T05:50:39.029Z,9.757515
2022-09-05T05:52:01.008Z,9.757498
2022-09-05T05:52:40.017Z,9.757385
2022-09-05T05:53:43.926Z,9.757400
2022-09-05T05:54:40.990Z,9.757451
2022-09-05T05:55:51.996Z,9.757428
2022-09-05T05:56:39.992Z,9.757519
2022-09-05T05:57:38.994Z,9.757530
2022-09-05T05:58:38.979Z,9.757519
2022-09-05T05:59:38.991Z,9.757511
2022-09-05T06:00:38.958Z,9.757518
2022-09-05T06:01:39.026Z,9.757449
2022-09-05T06:02:39.045Z,9.757355
2022-09-05T06:03:39.056Z,9.757356
2022-09-05T06:04:45.382Z,9.757342
2022-09-05T06:05:39.911Z,9.757348
2022-09-05T06:06:38.899Z,9.757398
2022-09-05T06:07:45.058Z,9.757532
2022-09-05T06:14:49.205Z,9.757105
2022-09-05T06:14:49.678Z,9.757463
2022-09-05T06:14:55.327Z,9.757149
2022-09-05T06:14:55.518Z,9.757351
2022-09-05T06:14:55.983Z,9.757187
2022-09-05T06:14:57.018Z,9.757368
2022-09-05T06:15:04.345Z,9.757236
2022-09-05T06:15:39.815Z,9.757323
2022-09-05T06:16:38.853Z,9.757436
2022-09-05T06:17:38.801Z,9.757385
2022-09-05T06:18:42.535Z,9.757392
2022-09-05T06:20:20.893Z,9.757518
2022-09-05T06:22:04.794Z,9.757566
2022-09-05T06:22:10.456Z,9.757525
2022-09-05T06:22:39.761Z,9.757484
2022-09-05T06:23:40.103Z,9.757466
2022-09-05T06:24:38.776Z,9.757356
2022-09-05T06:25:38.758Z,9.757331
2022-09-05T06:26:38.734Z,9.757448
2022-09-05T06:28:17.322Z,9.757420
2022-09-05T06:28:39.710Z,9.757490
2022-09-05T06:29:38.802Z,9.757809
2022-09-05T06:30:38.690Z,9.757614
2022-09-05T06:31:38.758Z,9.757648
2022-09-05T06:32:38.685Z,9.757673
2022-09-05T06:33:38.663Z,9.757755
2022-09-05T06:34:38.693Z,9.757834
2022-09-05T06:35:38.649Z,9.757524
2022-09-05T06:36:38.647Z,9.757558
2022-09-05T06:37:38.637Z,9.757643
2022-09-05T06:38:38.627Z,9.757521
2022-09-05T06:39:38.735Z,9.757454
2022-09-05T06:40:39.613Z,9.757467
2022-09-05T06:41:38.607Z,9.757427
2022-09-05T06:42:43.590Z,9.757590
2022-09-05T06:43:39.592Z,9.757685
2022-09-05T06:44:38.581Z,9.757520
2022-09-05T06:45:38.602Z,9.757578
2022-09-05T06:46:55.262Z,9.757686
2022-09-05T06:47:39.583Z,9.757484
2022-09-05T06:48:45.815Z,9.757478
2022-09-05T06:49:42.841Z,9.757595
2022-09-05T06:51:07.285Z,9.757789
2022-09-05T06:51:44.953Z,9.757453
2022-09-05T06:52:39.518Z,9.757438
2022-09-05T06:53:38.511Z,9.757581
2022-09-05T06:54:38.497Z,9.757692
2022-09-05T06:55:39.513Z,9.757882
2022-09-05T06:56:38.483Z,9.757909
2022-09-05T06:57:40.032Z,9.757683
2022-09-05T06:58:39.485Z,9.757636
2022-09-05T06:59:38.459Z,9.757569
2022-09-05T07:00:38.500Z,9.757524
2022-09-05T07:01:59.497Z,9.757452
2022-09-05T07:02:59.297Z,9.757690
2022-09-05T07:03:39.421Z,9.757662
2022-09-05T07:05:37.820Z,9.757661
2022-09-05T07:05:45.320Z,9.757856
2022-09-05T07:07:01.173Z,9.757642
2022-09-05T07:07:43.730Z,9.757623
2022-09-05T07:08:39.383Z,9.757524
2022-09-05T07:09:38.373Z,9.757683
2022-09-05T07:10:39.379Z,9.757830
2022-09-05T07:11:39.363Z,9.757626
2022-09-05T07:12:38.355Z,9.757588
2022-09-05T07:13:44.754Z,9.757697
2022-09-05T07:14:40.324Z,9.757669
2022-09-05T07:15:38.353Z,9.757673
2022-09-05T07:16:39.039Z,9.757404
2022-09-05T07:18:06.175Z,9.757457
2022-09-05T07:18:40.296Z,9.757434
2022-09-05T07:19:38.296Z,9.757540
2022-09-05T07:21:15.767Z,9.757550
2022-09-05T07:21:39.285Z,9.757205
2022-09-05T07:22:47.778Z,9.757321
2022-09-05T07:23:56.510Z,9.757586
2022-09-05T07:24:54.783Z,9.757531
2022-09-05T07:25:39.281Z,9.757495
2022-09-05T07:26:51.654Z,9.757479
2022-09-05T07:27:48.408Z,9.757603
2022-09-05T07:28:39.219Z,9.757586
2022-09-05T07:29:38.214Z,9.757570
2022-09-05T07:30:38.266Z,9.757393
2022-09-05T07:31:38.432Z,9.757505
2022-09-05T07:32:38.204Z,9.757555
2022-09-05T07:33:38.190Z,9.757509
2022-09-05T07:34:38.176Z,9.757459
2022-09-05T07:35:41.494Z,9.757591
2022-09-05T07:36:38.153Z,9.757575
2022-09-05T07:37:38.158Z,9.757483
2022-09-05T07:38:52.414Z,9.757511
2022-09-05T07:39:39.165Z,9.757443
2022-09-05T07:40:38.197Z,9.757504
2022-09-05T07:41:38.124Z,9.757607
2022-09-05T07:42:38.115Z,9.757497
2022-09-05T07:43:38.108Z,9.757637
2022-09-05T07:44:38.105Z,9.757623
2022-09-05T07:45:38.171Z,9.757577
2022-09-05T07:46:38.086Z,9.757713
2022-09-05T07:47:38.079Z,9.757792
2022-09-05T07:48:38.068Z,9.758006
2022-09-05T07:49:39.919Z,9.758421
2022-09-05T07:55:56.179Z,9.758355
2022-09-05T07:56:47.607Z,9.757853
2022-09-05T07:56:50.339Z,9.757643
2022-09-05T07:56:55.882Z,9.757715
2022-09-05T07:57:01.602Z,9.757651
2022-09-05T07:57:03.849Z,9.757568
2022-09-05T07:57:12.639Z,9.757677
2022-09-05T07:57:52.176Z,9.757803
2022-09-05T07:58:38.990Z,9.757875
2022-09-05T07:59:37.978Z,9.757924
2022-09-05T08:00:38.034Z,9.758185
2022-09-05T08:01:39.726Z,9.758136
2022-09-05T08:02:37.961Z,9.758121
2022-09-05T08:03:37.959Z,9.758191
2022-09-05T08:04:37.984Z,9.757924
2022-09-05T08:05:38.030Z,9.758078
2022-09-05T08:07:45.839Z,9.758132
2022-09-05T08:07:47.346Z,9.757734
2022-09-05T08:08:38.919Z,9.757650
2022-09-05T08:10:06.350Z,9.757576
2022-09-05T08:11:24.231Z,9.757504
2022-09-05T08:11:38.895Z,9.757634
2022-09-05T08:13:22.578Z,9.757535
2022-09-05T08:13:39.297Z,9.757541
2022-09-05T08:14:43.335Z,9.757570
2022-09-05T08:16:00.613Z,9.757585
2022-09-05T08:16:38.910Z,9.757557
2022-09-05T08:17:37.846Z,9.757657
2022-09-05T08:18:37.836Z,9.757700
2022-09-05T08:19:37.833Z,9.757670
2022-09-05T08:20:37.825Z,9.757933
2022-09-05T08:21:40.017Z,9.758005
2022-09-05T08:22:38.818Z,9.757944
2022-09-05T08:23:37.794Z,9.757865
2022-09-05T08:24:37.794Z,9.757709
2022-09-05T08:25:57.200Z,9.757509
2022-09-05T08:26:38.786Z,9.757408
2022-09-05T08:27:37.793Z,9.757367
2022-09-05T08:28:39.608Z,9.757841
2022-09-05T08:29:37.773Z,9.757709
2022-09-05T08:30:37.779Z,9.757710
2022-09-05T08:31:41.947Z,9.757638
2022-09-05T08:32:37.727Z,9.757481
2022-09-05T08:33:38.733Z,9.757428
2022-09-05T08:34:44.750Z,9.757487
2022-09-05T08:35:38.743Z,9.757547
2022-09-05T08:36:37.720Z,9.757504
2022-09-05T08:37:37.705Z,9.757442
2022-09-05T08:38:40.928Z,9.757527
2022-09-05T08:39:37.708Z,9.757482
2022-09-05T08:40:37.715Z,9.757449
2022-09-05T08:41:51.108Z,9.757513
2022-09-05T08:42:38.664Z,9.757402
2022-09-05T08:46:37.182Z,9.757357
2022-09-05T08:46:43.898Z,9.757435
2022-09-05T08:46:47.489Z,9.757392
2022-09-05T08:46:49.158Z,9.757422
2022-09-05T08:47:45.000Z,9.757411
2022-09-05T08:48:38.625Z,9.757447
2022-09-05T08:49:40.333Z,9.757454
2022-09-05T08:50:37.639Z,9.757449
2022-09-05T08:51:41.226Z,9.757446
2022-09-05T08:52:38.593Z,9.757483
2022-09-05T08:53:46.739Z,9.757468
2022-09-05T08:54:38.598Z,9.757396
2022-09-05T08:55:37.617Z,9.757432
2022-09-05T08:56:37.568Z,9.757462
2022-09-05T08:57:39.434Z,9.757461
2022-09-05T08:58:37.553Z,9.757468
2022-09-05T08:59:37.557Z,9.757380
2022-09-05T09:00:38.638Z,9.757392
2022-09-05T09:01:39.547Z,9.757463
2022-09-05T09:02:47.789Z,9.757473
2022-09-05T09:03:38.608Z,9.757473
2022-09-05T09:05:00.850Z,9.757484
2022-09-05T09:05:49.882Z,9.757495
2022-09-05T09:06:38.515Z,9.757392
2022-09-05T09:07:51.499Z,9.757443
2022-09-05T09:08:38.512Z,9.757500
2022-09-05T09:09:37.481Z,9.757506
2022-09-05T09:10:37.511Z,9.757439
2022-09-05T09:11:37.471Z,9.757383
2022-09-05T09:12:37.470Z,9.757470
2022-09-05T09:13:37.458Z,9.757481
2022-09-05T09:14:37.461Z,9.757434
2022-09-05T09:15:37.480Z,9.757477
2022-09-05T09:16:37.442Z,9.757466
2022-09-05T09:17:37.438Z,9.757362
2022-09-05T09:18:37.434Z,9.757394
2022-09-05T09:19:37.427Z,9.757488
2022-09-05T09:20:37.448Z,9.757633
2022-09-05T09:21:38.408Z,9.757557
2022-09-05T09:22:37.409Z,9.757429
2022-09-05T09:23:37.408Z,9.757409
2022-09-05T09:24:37.388Z,9.757582
2022-09-05T09:25:37.419Z,9.757462
2022-09-05T09:26:37.388Z,9.757469
2022-09-05T09:28:46.565Z,9.757465
2022-09-05T09:28:50.214Z,9.757531
2022-09-05T09:29:38.359Z,9.757572
2022-09-05T09:30:37.378Z,9.757473
2022-09-05T09:31:37.444Z,9.757478
2022-09-05T09:32:37.352Z,9.757496
2022-09-05T09:33:37.333Z,9.757439
2022-09-05T09:34:39.568Z,9.757464
2022-09-05T09:35:37.348Z,9.757500
2022-09-05T09:36:37.318Z,9.757458
2022-09-05T09:37:51.956Z,9.757704
2022-09-05T09:38:38.303Z,9.757554
2022-09-05T09:39:39.775Z,9.757432
2022-09-05T09:40:37.315Z,9.757437
2022-09-05T09:41:37.292Z,9.757456
2022-09-05T09:42:37.287Z,9.757487
2022-09-05T09:43:37.269Z,9.757468
2022-09-05T09:44:37.269Z,9.757466
2022-09-05T09:45:37.278Z,9.757370
2022-09-05T09:46:39.383Z,9.757518
2022-09-05T09:47:37.246Z,9.757541
2022-09-05T09:48:37.244Z,9.757591
2022-09-05T09:49:37.238Z,9.757754
2022-09-05T09:50:37.263Z,9.757720
2022-09-05T09:51:38.218Z,9.757638
2022-09-05T09:52:37.211Z,9.757557
2022-09-05T09:53:37.442Z,9.757452
2022-09-05T09:54:37.198Z,9.757633
2022-09-05T09:55:37.222Z,9.757622
2022-09-05T09:56:37.198Z,9.757579
2022-09-05T09:57:37.172Z,9.757655
2022-09-05T09:58:37.173Z,9.757657
2022-09-05T09:59:45.327Z,9.757577
2022-09-05T10:00:38.196Z,9.757625
2022-09-05T10:01:37.487Z,9.757771
2022-09-05T10:07:25.301Z,9.757650
2022-09-05T10:09:32.735Z,9.757637
2022-09-05T10:10:38.879Z,9.757707
2022-09-05T10:10:39.362Z,9.757655
2022-09-05T10:10:45.321Z,9.757606
2022-09-05T10:10:45.887Z,9.757655
2022-09-05T10:10:46.527Z,9.757800
2022-09-05T10:10:59.081Z,9.757661
2022-09-05T10:11:07.811Z,9.757652
2022-09-05T10:11:55.536Z,9.757653
2022-09-05T10:12:39.090Z,9.757656
2022-09-05T10:13:37.082Z,9.757602
2022-09-05T10:14:49.330Z,9.757593
2022-09-05T10:15:38.235Z,9.757631
2022-09-05T10:16:37.059Z,9.757550
2022-09-05T10:17:37.062Z,9.757595
2022-09-05T10:18:37.057Z,9.757602
2022-09-05T10:20:39.070Z,9.757622
2022-09-05T10:21:37.041Z,9.757648
2022-09-05T10:22:37.744Z,9.757565
2022-09-05T10:23:38.017Z,9.757633
2022-09-05T10:24:38.011Z,9.757607
2022-09-05T10:25:36.997Z,9.757656
2022-09-05T10:26:37.027Z,9.757789
2022-09-05T10:27:36.988Z,9.757689
2022-09-05T10:28:36.986Z,9.757674
2022-09-05T10:29:38.700Z,9.757711
2022-09-05T10:32:23.207Z,9.757649
2022-09-05T10:33:22.668Z,9.757642
2022-09-05T10:35:04.928Z,9.757690
2022-09-05T10:35:10.839Z,9.757640
2022-09-05T10:35:17.245Z,9.757607
2022-09-05T10:35:38.021Z,9.757628
2022-09-05T10:36:37.008Z,9.757570
2022-09-05T10:37:36.919Z,9.757605
2022-09-05T10:38:36.927Z,9.757592
2022-09-05T10:39:36.938Z,9.757547
2022-09-05T10:40:51.439Z,9.757493
2022-09-05T10:41:37.925Z,9.757493
2022-09-05T10:42:37.150Z,9.757612
2022-09-05T10:43:37.884Z,9.757606
2022-09-05T10:44:36.874Z,9.757533
2022-09-05T10:45:38.477Z,9.757580
2022-09-05T10:46:52.330Z,9.757636
2022-09-05T10:47:38.858Z,9.757618
2022-09-05T10:48:36.851Z,9.757614
2022-09-05T10:49:36.836Z,9.757473
2022-09-05T10:50:36.833Z,9.757584
2022-09-05T10:51:37.752Z,9.757566
2022-09-05T10:52:36.818Z,9.757624
2022-09-05T10:53:39.429Z,9.757772
2022-09-05T10:54:36.817Z,9.757627
2022-09-05T10:55:36.795Z,9.757484
2022-09-05T10:56:36.815Z,9.757613
2022-09-05T10:57:36.851Z,9.757569
2022-09-05T10:59:33.116Z,9.757665
2022-09-05T11:02:20.635Z,9.757617
2022-09-05T11:02:24.439Z,9.757601
2022-09-05T11:02:29.803Z,9.757476
2022-09-05T11:02:41.200Z,9.757463
2022-09-05T11:03:38.759Z,9.757945
2022-09-05T11:04:46.399Z,9.757635
2022-09-05T11:05:37.768Z,9.757543
2022-09-05T11:06:36.747Z,9.757562
2022-09-05T11:07:36.709Z,9.757583
2022-09-05T11:08:36.696Z,9.757486
2022-09-05T11:09:36.703Z,9.757486
2022-09-05T11:10:36.694Z,9.757488
2022-09-05T11:11:36.713Z,9.757463
2022-09-05T11:12:36.683Z,9.757373
2022-09-05T11:13:36.670Z,9.757324
2022-09-05T11:14:36.655Z,9.757418
2022-09-05T11:15:36.705Z,9.757464
2022-09-05T11:16:36.719Z,9.757511
2022-09-05T11:17:36.642Z,9.757498
2022-09-05T11:18:55.675Z,9.757628
2022-09-05T11:19:37.625Z,9.757473
2022-09-05T11:20:36.686Z,9.757506
2022-09-05T11:21:36.639Z,9.757488
2022-09-05T11:22:36.610Z,9.757573
2022-09-05T11:23:36.610Z,9.757655
2022-09-05T11:24:36.592Z,9.757545
2022-09-05T11:25:40.470Z,9.757668
2022-09-05T11:26:36.612Z,9.757554
2022-09-05T11:27:36.570Z,9.757543
2022-09-05T11:28:36.901Z,9.757581
2022-09-05T11:29:36.557Z,9.757515
2022-09-05T11:30:38.692Z,9.757547
2022-09-05T11:31:45.740Z,9.757574
2022-09-05T11:37:35.867Z,9.757480
2022-09-05T11:39:45.663Z,9.757513
2022-09-05T11:39:50.250Z,9.757565
2022-09-05T11:39:55.957Z,9.757501
2022-09-05T11:39:56.731Z,9.757540
2022-09-05T11:39:59.643Z,9.757450
2022-09-05T11:40:04.230Z,9.757621
2022-09-05T11:40:07.146Z,9.757367
2022-09-05T11:40:53.543Z,9.757583
2022-09-05T11:41:38.563Z,9.757524
2022-09-05T11:42:36.489Z,9.757474
2022-09-05T11:43:36.473Z,9.757374
2022-09-05T11:44:36.481Z,9.757362
2022-09-05T11:45:36.823Z,9.757581